Latest Coastal Weather Observations for Middle Percy Island

IDQ60701

Issued at 1:31 pm EST Friday 6 May 2016 (issued every 10 minutes, with the page automatically refreshed every 10 minutes)

About coastal observations | Map of coastal stations | Coastal observations for QLD | Marine services | Other Formats
Station Details ID: 200001 Name: MIDDLE PERCY ISLAND Lat: -21.66 Lon: 150.27 Height: 208.7 m
Data from the previous 72 hours. | See also: Recent months at Middle Percy Island
Date/Time
EST
Temp

°C
Wind Pressure Rain
since 9am
mm
Weather Cloud Vis
km
Sea
Height
m
Swell
Dir
 
Speed
knots
Gust
knots
hPa Trend Height
m
Period
s
Dir
06/01:30pm 24.8 SSE 10 15 1015.8 - 0.0 - - - - - - -
06/01:00pm 24.5 SSE 9 14 1016.3 - 0.0 - - - - - - -
06/12:30pm 25.0 SE 10 15 1016.6 - 0.0 - - - - - - -
06/12:00pm 24.8 SSE 11 16 1017.1 - 0.0 - - - - - - -
06/11:30am 24.9 SSE 10 14 1017.5 - 0.0 - - - - - - -
06/11:00am 24.6 SE 11 15 1017.6 - 0.0 - - - - - - -
06/10:30am 25.0 SE 9 14 1018.1 - 0.0 - - - - - - -
06/10:00am 24.4 SE 10 14 1018.3 - 0.0 - - - - - - -
06/09:30am 23.8 SSE 12 17 1018.2 - 0.0 - - - - - - -
06/09:00am 24.0 SE 10 14 1018.3 - 0.0 - - - - - - -
06/08:30am 23.6 SSE 9 15 1018.2 - 0.0 - - - - - - -
06/08:00am 23.1 SE 10 13 1017.8 - 0.0 - - - - - - -
06/07:30am 22.8 SE 9 13 1017.3 - 0.0 - - - - - - -
06/07:00am 22.5 SE 8 12 1016.9 - 0.0 - - - - - - -
06/06:30am 22.2 SE 7 10 1016.7 - 0.0 - - - - - - -
06/06:00am 22.2 SE 9 12 1016.3 - 0.0 - - - - - - -
06/05:30am 22.5 SE 9 12 1016.1 - 0.0 - - - - - - -
06/05:00am 22.3 SE 8 11 1015.9 - 0.0 - - - - - - -
06/04:30am 22.2 SE 8 13 1015.6 - 0.0 - - - - - - -
06/04:00am 22.4 SE 9 13 1015.8 - 0.0 - - - - - - -
06/03:30am 22.6 ESE 7 12 1016.1 - 0.0 - - - - - - -
06/03:00am 22.7 ESE 8 12 1016.0 - 0.0 - - - - - - -
06/02:30am 22.7 ESE 10 13 1015.9 - 0.0 - - - - - - -
06/02:00am 22.8 ESE 9 14 1016.2 - 0.0 - - - - - - -
06/01:30am 22.8 ESE 9 16 1016.4 - 0.0 - - - - - - -
06/01:00am 22.8 ESE 7 12 1016.6 - 0.0 - - - - - - -
06/12:30am 22.8 ESE 8 14 1016.7 - 0.0 - - - - - - -
06/12:00am 22.9 ESE 8 12 1017.0 - 0.0 - - - - - - -
 
Date/Time
EST
Temp

°C
Wind Pressure Rain
since 9am
mm
Weather Cloud Vis
km
Sea
Height
m
Swell
Dir
 
Speed
knots
Gust
knots
hPa Trend Height
m
Period
s
Dir
05/11:30pm 22.7 ESE 7 15 1017.3 - 0.0 - - - - - - -
05/11:00pm 22.8 ESE 9 14 1017.5 - 0.0 - - - - - - -
05/10:30pm 22.8 ESE 8 14 1017.9 - 0.0 - - - - - - -
05/10:00pm 22.9 ESE 9 15 1017.9 - 0.0 - - - - - - -
05/09:30pm 22.9 ESE 10 14 1017.9 - 0.0 - - - - - - -
05/09:00pm 23.0 ESE 11 17 1017.8 - 0.0 - - - - - - -
05/08:30pm 23.0 ESE 13 20 1017.8 - 0.0 - - - - - - -
05/08:00pm 23.0 ESE 14 20 1017.7 - 0.0 - - - - - - -
05/07:30pm 23.1 ESE 15 21 1017.5 - 0.0 - - - - - - -
05/07:00pm 23.1 ESE 14 21 1017.0 - 0.0 - - - - - - -
05/06:30pm 23.0 SE 15 21 1016.6 - 0.0 - - - - - - -
05/06:00pm 23.0 ESE 16 22 1016.2 - 0.0 - - - - - - -
05/05:30pm 22.9 ESE 14 19 1016.1 - 0.0 - - - - - - -
05/05:00pm 23.1 SE 15 20 1015.9 - 0.0 - - - - - - -
05/04:30pm 23.4 SE 15 20 1015.6 - 0.0 - - - - - - -
05/04:00pm 23.7 SE 14 19 1015.6 - 0.0 - - - - - - -
05/03:30pm 23.9 SE 14 20 1015.4 - 0.0 - - - - - - -
05/03:00pm 23.6 SE 15 20 1015.3 - 0.0 - - - - - - -
05/02:30pm 24.1 SE 14 21 1015.4 - 0.0 - - - - - - -
05/02:00pm 25.0 SE 13 19 1015.7 - 0.0 - - - - - - -
05/01:30pm 24.3 SE 12 18 1016.0 - 0.0 - - - - - - -
05/01:00pm 24.7 SE 15 20 1016.3 - 0.0 - - - - - - -
05/12:30pm 25.1 SE 14 19 1016.8 - 0.0 - - - - - - -
05/12:00pm 25.4 SE 12 15 1017.1 - 0.0 - - - - - - -
05/11:30am 23.9 ESE 11 17 1017.6 - 0.0 - - - - - - -
05/11:00am 23.9 SE 12 16 1018.0 - 0.0 - - - - - - -
05/10:30am 23.9 S 10 13 1018.1 - 0.0 - - - - - - -
05/10:00am 24.2 SE 8 12 1018.5 - 0.0 - - - - - - -
05/09:30am 24.6 SE 6 10 1018.6 - 0.0 - - - - - - -
05/09:00am 23.8 SE 5 7 1018.5 - 15.6 - - - - - - -
05/08:30am 23.2 ESE 4 6 1018.5 - 15.6 - - - - - - -
05/08:00am 22.8 ESE 5 8 1018.2 - 15.6 - - - - - - -
05/07:30am 22.1 E 5 7 1017.7 - 15.6 - - - - - - -
05/07:00am 21.1 ESE 6 8 1017.3 - 15.6 - - - - - - -
05/06:30am 21.3 ESE 4 7 1016.9 - 15.6 - - - - - - -
05/06:00am 21.1 NE 6 8 1016.2 - 15.6 - - - - - - -
05/05:30am 21.2 NE 8 14 1016.7 - 15.6 - - - - - - -
05/05:00am 21.1 NNE 8 11 1016.2 - 15.6 - - - - - - -
05/04:30am 21.0 NE 5 6 1016.2 - 15.4 - - - - - - -
05/04:00am 20.8 SE 4 5 1016.2 - 12.2 - - - - - - -
05/03:30am 21.3 S 5 8 1016.4 - 5.2 - - - - - - -
05/03:00am 21.6 NE 8 11 1015.6 - 1.0 Rain - - - - - -
05/02:30am 22.3 NE 10 15 1015.2 - 0.8 - - - - - - -
05/02:00am 22.4 ENE 9 14 1015.6 - 0.8 - - - - - - -
05/01:30am 21.7 NE 8 12 1015.8 - 0.8 - - - - - - -
05/01:00am 22.9 ENE 6 8 1016.3 - 0.6 - - - - - - -
05/12:30am 23.1 ESE 7 10 1016.3 - 0.2 - - - - - - -
05/12:00am 23.3 ENE 6 10 1016.3 - 0.2 - - - - - - -
 
Date/Time
EST
Temp

°C
Wind Pressure Rain
since 9am
mm
Weather Cloud Vis
km
Sea
Height
m
Swell
Dir
 
Speed
knots
Gust
knots
hPa Trend Height
m
Period
s
Dir
04/11:30pm 23.4 ENE 6 9 1016.8 - 0.2 - - - - - - -
04/11:00pm 23.2 E 5 8 1017.1 - 0.2 - - - - - - -
04/10:30pm 23.2 ESE 7 11 1017.2 - 0.2 - - - - - - -
04/10:00pm 23.7 ESE 9 14 1017.4 - 0.2 - - - - - - -
04/09:30pm 23.9 ESE 7 10 1017.3 - 0.2 - - - - - - -
04/09:00pm 23.8 ESE 4 7 1017.4 - 0.2 - - - - - - -
04/08:30pm 23.8 ESE 5 7 1017.3 - 0.2 - - - - - - -
04/08:00pm 23.8 E 4 5 1017.1 - 0.2 - - - - - - -
04/07:30pm 23.7 ESE 4 7 1016.6 - 0.2 - - - - - - -
04/07:00pm 23.5 ESE 4 6 1016.3 - 0.2 - - - - - - -
04/06:30pm 23.6 SE 3 4 1016.0 - 0.2 - - - - - - -
04/06:00pm 23.7 SSE 4 6 1015.4 - 0.2 - - - - - - -
04/05:30pm 23.7 SE 4 5 1014.8 - 0.2 - - - - - - -
04/05:00pm 24.2 SSE 3 3 1014.5 - 0.2 - - - - - - -
04/04:30pm 24.4 CALM 0 0 1014.3 - 0.2 - - - - - - -
04/04:00pm 24.3 SW 2 3 1014.1 - 0.2 - - - - - - -
04/03:30pm 24.4 SW 3 5 1013.8 - 0.2 - - - - - - -
04/03:00pm 24.5 SW 4 7 1013.8 - 0.2 - - - - - - -
04/02:30pm 24.6 SW 5 7 1014.0 - 0.2 - - - - - - -
04/02:00pm 24.9 SW 5 7 1013.8 - 0.2 - - - - - - -
04/01:30pm 26.0 WSW 4 7 1014.0 - 0.2 - - - - - - -
04/01:00pm 26.4 SW 3 6 1014.4 - 0.2 - - - - - - -
04/12:30pm 27.1 SW 3 5 1014.9 - 0.2 - - - - - - -
04/12:00pm 26.0 SW 5 7 1015.3 - 0.2 - - - - - - -
04/11:30am 26.4 W 3 5 1015.9 - 0.2 - - - - - - -
04/11:00am 26.6 NW 3 5 1016.2 - 0.2 - - - - - - -
04/10:30am 26.9 WNW 3 4 1016.4 - 0.2 - - - - - - -
04/10:00am 25.8 NNW 3 5 1016.8 - 0.0 - - - - - - -
04/09:30am 25.1 NW 5 7 1017.0 - 0.0 - - - - - - -
04/09:00am 24.7 WNW 4 6 1016.9 - 0.0 - - - - - - -
04/08:30am 24.5 NNW 4 7 1016.7 - 0.0 - - - - - - -
04/08:00am 24.0 NNW 5 8 1016.2 - 0.0 - - - - - - -
04/07:30am 23.7 NNW 6 9 1016.0 - 0.0 - - - - - - -
04/07:00am 23.5 NNW 6 8 1015.6 - 0.0 - - - - - - -
04/06:30am 23.3 NNW 8 11 1015.1 - 0.0 - - - - - - -
04/06:00am 23.2 NNW 7 9 1014.7 - 0.0 - - - - - - -
04/05:30am 23.3 NNW 7 9 1014.3 - 0.0 - - - - - - -
04/05:00am 23.3 NNW 8 11 1014.0 - 0.0 - - - - - - -
04/04:30am 23.1 NNW 10 13 1013.5 - 0.0 - - - - - - -
04/04:00am 23.0 NNW 9 10 1013.6 - 0.0 - - - - - - -
04/03:30am 23.0 NNW 8 10 1013.6 - 0.0 - - - - - - -
04/03:00am 23.1 NNW 9 11 1013.5 - 0.0 - - - - - - -
04/02:30am 23.1 NNW 9 12 1013.4 - 0.0 - - - - - - -
04/02:00am 23.2 N 10 13 1013.4 - 0.0 - - - - - - -
04/01:30am 23.3 N 10 12 1013.6 - 0.0 - - - - - - -
04/01:00am 23.3 N 8 11 1013.8 - 0.0 - - - - - - -
04/12:30am 23.4 N 11 13 1013.8 - 0.0 - - - - - - -
04/12:00am 23.5 N 9 11 1014.5 - 0.0 - - - - - - -
 
Date/Time
EST
Temp

°C
Wind Pressure Rain
since 9am
mm
Weather Cloud Vis
km
Sea
Height
m
Swell
Dir
 
Speed
knots
Gust
knots
hPa Trend Height
m
Period
s
Dir
03/11:30pm 23.6 N 8 11 1014.7 - 0.0 - - - - - - -
03/11:00pm 23.6 N 9 12 1014.6 - 0.0 - - - - - - -
03/10:30pm 23.7 N 10 12 1014.8 - 0.0 - - - - - - -
03/10:00pm 23.6 N 8 11 1015.2 - 0.0 - - - - - - -
03/09:30pm 23.8 N 7 9 1015.4 - 0.0 - - - - - - -
03/09:00pm 23.7 N 7 10 1015.3 - 0.0 - - - - - - -
03/08:30pm 23.6 NNE 8 11 1015.0 - 0.0 - - - - - - -
03/08:00pm 23.4 NNE 8 10 1015.1 - 0.0 - - - - - - -
03/07:30pm 23.0 NNE 8 10 1014.7 - 0.0 - - - - - - -
03/07:00pm 22.7 NNE 7 9 1014.5 - 0.0 - - - - - - -
03/06:30pm 22.6 NNE 7 8 1014.0 - 0.0 - - - - - - -
03/06:00pm 22.9 NNE 4 5 1013.8 - 0.0 - - - - - - -
03/05:30pm 23.2 NNE 3 4 1013.4 - 0.0 - - - - - - -
03/05:00pm 24.4 CALM 0 0 1013.1 - 0.0 - - - - - - -
03/04:30pm 25.7 CALM 0 1 1013.0 - 0.0 - - - - - - -
03/04:00pm 25.4 S 1 2 1012.7 - 0.0 - - - - - - -
03/03:30pm 24.3 CALM 0 0 1012.7 - 0.0 - - - - - - -
03/03:00pm 24.0 CALM 0 2 1012.8 - 0.0 - - - - - - -
03/02:30pm 24.1 SW 3 4 1013.0 - 0.0 - - - - - - -
03/02:00pm 24.3 SSW 3 5 1013.0 - 0.0 - - - - - - -

Other Formats:

Comma delimited format used in spreadsheet applications
http://www.bom.gov.au/fwo/IDQ60701/IDQ60701.94372.axf

JavaScript Object Notation format (JSON) in row-major order
http://www.bom.gov.au/fwo/IDQ60701/IDQ60701.94372.json